Airfield :
LOGIN :

Register | Disclaimer

   EN    FR    IT 

 










Legend :    VFR   Marginal VFR   IFR   Intensive IFR   Very Intensive IFR
Visi :
Ceiling :
>= 8 km
>= 3000ft
5 to 8 km
1000 to 3000 ft
1500m to 5 km
500 to 1000 ft
800 to 1500m
200 to 500 ft
< 800m
< 200 ft
Symbols :   Thunderstorms  Fog  Heavy snow  Heavy precipitations  Wind > 20 kt
SIGMETs :     Misc.  Thunderstorms  Icing  Turbulence  Mountain Waves  Volcanic Ashes







- Airport Elevation : 353 ft
- IATA code : LIN


LIML - Milano Linate

CURRENT METAR :
  • 281020Z 14003KT 090V200 9999 SCT025 SCT060 26/18 Q1002 NOSIG

EXPIRED METARs :
  • 280950Z 12005KT 090V150 9999 SCT025 SCT060 26/18 Q1002 NOSIG
  • 280920Z VRB02KT 9999 SCT025 26/17 Q1002 NOSIG
  • 280850Z VRB02KT 9999 SCT025 26/18 Q1003 NOSIG
  • 280820Z VRB02KT 9999 FEW025 26/17 Q1003 NOSIG
  • 280750Z 12004KT 080V170 9999 FEW025 26/18 Q1003 NOSIG

TAF TAF LIML
Valid from the 28 at 06:00 until the 29 at 06:00 UTC


280500Z 2806/2906 08008KT 9999 BKN050
TEMPO 2806/2902 VRB15G25KT 3000 TSRA BKN010CB
TEMPO 2902/2906 3500 BR
No reported NOTAMs for that airfield.
1 SIGMET reported for the Milano FIR (LIMM) :
 
Embedded thunderstorms
LIMM SIGMET 3 VALID 280650/281050 LIMM- LIMM MILANO FIR EMBD TS FCST N OF LINE N4347 E00717 - N4415 E00818 - N4507 E00824 - N4525 E00924 - N4539 E01118 - N4559 E01227 - N4609 E01340 - N4347 E00717 TOP FL400 MOV NE NC=



MET'MAP, your aeronautical weather chart ! - Copyright ORBIFLY December 2007 - Disclaimer

ORBIFLY MET'MAP TEAM :

Programming & Development : Alexandra Zaïnal
Concept & Development : Baudouin d'Aumeries
Co-Development & Prog : Marc-Olivier Méhu
Technical & hardware support : Manuel Goepfert

Contact : metmap@orbifly.com




SOURCES & CREDITS :

   NOAA